Portada
METAR-TAF:

METAR-TAF

Aeropuertos :

Diourbel, Senegal

latitud: 14-39N, longitud: 016-14W, altitud: 7 m

Observación

El informe se hizo hace 50 minutos, a las 00:00 UTC
Viento 14 kt del norte-noroeste
Temperatura 28°C
Humedad 79%
Presión 1012 hPa
Visibilidad 10 km o más
sin nubes por debajo de 1500 m y sin presencia de cumulonimbus.

METAR: GOOD 220000Z 34014KT CAVOK 28/24 Q1012

Hora: 00:50 (00:50 UTC)


TAF: falta

Observaciones y pronósticos meteorológicos de más de 4000 aeropuertos (mensajes METAR y TAF).

Los puntos amarillos y rojos representan las estaciones disponibles.

Ponga el ratón en el punto deseado para ver el nombre de la estación.

Haga clic para ver las observaciones y los pronósticos meteorológicos.

Para cambiar el mapa : haga clic en los botones verdes con una cruz de color negro para hacer un zoom, en el botón verde con un guión para alejar o en las flechas verdes para mapas adyacentes.


METAR-TAF: